Aroya, Colorado
Current Conditions -  °F | °C
As of 9:55 AM on Friday 31 Oct 2014 (Local Time) from KLIC Reporting Station
Clear Clear  
Wind Chill: 27°   Ceiling: Unl
Heat Index: 38°   Visibility: 10mi
Dew Point: 29°   Wind: 23mph
Humidity: 70%   Direction: 160°SSE
Pressure: 30.39"   Gusts: 30mph
Location:  38.8543°N, 103.125°W
Report Text: KLIC 311555Z AUTO 16020G26KT 10SM CLR 03/M02 A3039 RMK AO2 PK WND 16026/1553 SLP300 T00331017
Loading
Personal Weather Stations






























Interactive Weather Map
Tropical Storm Tracking
New forecast layout! Learn more

10-Day Weather Forecast

Advertisements
Track Severe Weather on mobile